Time;durP1;ratioP1;P1;durP2;ratioP2;P2;SDS_P1;SDS_P2;PMS_P1;PMS_P2;Temp;Humidity;BMP_temperature;BMP_pressure;BME280_temperature;BME280_humidity;BME280_pressure;Samples;Min_cycle;Max_cycle;Signal;HPM_P1;HPM_P2
2022/04/14 00:00:05;;;;;;;;;10.00;9.50;;;;;16.02;65.54;101421.41;5039622;28;45512;-57
2022/04/14 00:02:31;;;;;;;;;8.20;8.20;;;;;16.04;65.53;101421.16;5058088;28;45268;-51
2022/04/14 00:04:56;;;;;;;;;13.00;9.75;;;;;15.76;65.99;101383.78;5040130;28;45362;-52
2022/04/14 00:07:22;;;;;;;;;8.50;8.50;;;;;16.06;65.56;101419.00;5039855;28;46283;-56
2022/04/14 00:09:47;;;;;;;;;13.25;12.50;;;;;15.93;65.38;101408.94;5057970;28;45508;-56
2022/04/14 00:12:13;;;;;;;;;10.75;9.50;;;;;16.01;65.63;101421.63;5073844;28;45407;-55
2022/04/14 00:14:38;;;;;;;;;8.25;8.25;;;;;15.99;65.80;101425.47;5072812;28;45599;-59
2022/04/14 00:17:04;;;;;;;;;10.50;10.50;;;;;16.00;65.88;101426.31;5057903;28;46356;-51
2022/04/14 00:19:30;;;;;;;;;9.00;9.00;;;;;16.03;66.00;101436.06;5039760;28;45400;-54
2022/04/14 00:21:56;;;;;;;;;8.75;8.75;;;;;15.61;65.84;101368.41;5058015;28;45282;-59
2022/04/14 00:24:21;;;;;;;;;14.75;10.25;;;;;15.90;65.77;101421.28;5057705;28;45671;-51
2022/04/14 00:26:47;;;;;;;;;11.25;10.00;;;;;15.88;65.99;101417.91;5057556;28;45417;-56
2022/04/14 00:29:13;;;;;;;;;9.20;8.00;;;;;15.94;66.12;101416.16;5073033;28;45458;-57
2022/04/14 00:31:39;;;;;;;;;12.50;9.00;;;;;15.97;66.07;101419.31;5057269;28;45343;-56
2022/04/14 00:34:04;;;;;;;;;12.00;10.00;;;;;15.93;65.97;101417.25;5058111;28;45326;-57
2022/04/14 00:36:32;;;;;;;;;14.75;9.00;;;;;15.69;66.80;101392.16;5057119;28;45412;-54
2022/04/14 00:38:58;;;;;;;;;13.60;11.40;;;;;15.58;66.68;101369.72;5057404;28;45487;-55
2022/04/14 00:41:23;;;;;;;;;11.25;10.00;;;;;15.90;66.47;101417.69;5073170;28;45427;-57
2022/04/14 00:43:53;;;;;;;;;14.25;10.75;;;;;15.87;66.33;101410.69;5057496;28;45455;-52
2022/04/14 00:46:18;;;;;;;;;14.80;13.00;;;;;15.91;66.48;101413.84;5072582;28;46498;-52
2022/04/14 00:48:44;;;;;;;;;15.50;13.50;;;;;15.70;66.76;101383.63;5057491;28;45279;-58
2022/04/14 00:51:09;;;;;;;;;15.25;10.50;;;;;15.09;66.57;101283.88;5072994;28;45232;-54
2022/04/14 00:53:35;;;;;;;;;14.75;11.00;;;;;15.88;66.54;101419.81;5057365;28;45907;-55
2022/04/14 00:56:00;;;;;;;;;10.00;9.00;;;;;15.88;66.81;101417.06;5055487;28;47449;-56
2022/04/14 00:58:26;;;;;;;;;13.75;12.25;;;;;15.83;66.53;101418.59;5038969;28;45372;-55
2022/04/14 01:00:52;;;;;;;;;11.00;11.00;;;;;15.84;66.73;101423.06;5038922;28;45404;-56
2022/04/14 01:03:18;;;;;;;;;14.40;13.80;;;;;15.73;67.16;101404.44;5039295;28;45462;-56
2022/04/14 01:05:45;;;;;;;;;9.00;9.00;;;;;15.81;66.62;101428.22;5072410;28;46316;-56
2022/04/14 01:08:13;;;;;;;;;11.40;11.40;;;;;15.81;66.72;101420.75;5038623;28;45391;-55
2022/04/14 01:10:40;;;;;;;;;10.40;10.40;;;;;15.75;66.59;101413.38;5072144;28;45351;-53
2022/04/14 01:13:06;;;;;;;;;17.20;14.40;;;;;15.80;66.77;101421.81;5055161;28;45563;-55
2022/04/14 01:15:32;;;;;;;;;11.50;11.25;;;;;15.78;66.83;101429.53;5022726;28;47953;-52
2022/04/14 01:17:57;;;;;;;;;13.00;13.00;;;;;15.74;67.03;101417.22;5054175;28;45659;-57
2022/04/14 01:20:23;;;;;;;;;16.00;11.00;;;;;15.75;66.84;101423.59;5056447;28;45908;-53
2022/04/14 01:22:56;;;;;;;;;11.25;10.00;;;;;15.75;67.15;101426.38;5038418;28;45991;-53
2022/04/14 01:25:24;;;;;;;;;11.80;11.00;;;;;15.66;67.21;101421.16;5055030;28;45523;-55
2022/04/14 01:27:50;;;;;;;;;11.40;10.00;;;;;15.70;67.45;101432.59;5038361;28;45406;-55
2022/04/14 01:30:15;;;;;;;;;10.20;10.20;;;;;15.67;67.05;101422.84;5056253;28;45412;-57
2022/04/14 01:32:41;;;;;;;;;14.50;11.00;;;;;15.66;67.00;101423.91;5038216;28;45371;-55
2022/04/14 01:35:10;;;;;;;;;11.25;11.25;;;;;15.65;67.44;101424.13;5056102;28;46107;-55
2022/04/14 01:37:35;;;;;;;;;11.80;11.60;;;;;15.56;66.93;101418.03;5056005;28;45177;-55
2022/04/14 01:40:01;;;;;;;;;13.00;10.25;;;;;15.64;67.38;101427.97;5038341;28;45294;-56
2022/04/14 01:42:26;;;;;;;;;11.50;10.75;;;;;15.45;67.21;101397.53;5056177;28;45311;-55
2022/04/14 01:44:52;;;;;;;;;11.50;10.50;;;;;15.45;67.24;101403.06;5037556;28;45743;-56
2022/04/14 01:47:17;;;;;;;;;14.75;10.00;;;;;15.60;67.07;101427.59;5055695;28;45504;-52
2022/04/14 01:49:43;;;;;;;;;12.75;11.50;;;;;15.34;67.15;101379.75;5038210;28;45432;-55
2022/04/14 01:52:09;;;;;;;;;11.25;11.25;;;;;15.64;67.20;101427.97;5055986;28;45516;-56
2022/04/14 01:54:34;;;;;;;;;12.50;12.50;;;;;15.59;67.08;101421.19;5055655;28;45514;-51
2022/04/14 01:57:00;;;;;;;;;10.50;9.25;;;;;15.43;67.22;101389.44;5055519;28;45385;-56
2022/04/14 01:59:25;;;;;;;;;10.25;9.50;;;;;15.52;67.68;101428.72;5055920;28;45730;-55
2022/04/14 02:01:51;;;;;;;;;14.75;11.75;;;;;15.53;67.86;101424.88;5055897;28;45553;-56
2022/04/14 02:04:16;;;;;;;;;19.75;12.00;;;;;15.57;67.12;101417.81;5055715;28;45429;-53
2022/04/14 02:06:42;;;;;;;;;10.00;10.00;;;;;15.59;67.69;101415.66;5055674;28;45639;-55
2022/04/14 02:09:08;;;;;;;;;10.50;10.50;;;;;15.40;67.34;101387.16;5055887;28;45403;-56
2022/04/14 02:11:33;;;;;;;;;10.75;10.25;;;;;15.59;67.59;101423.97;5038219;28;45542;-52
2022/04/14 02:13:59;;;;;;;;;13.00;10.25;;;;;15.33;67.55;101372.56;5071244;28;45694;-59
2022/04/14 02:16:27;;;;;;;;;13.00;10.75;;;;;15.61;67.42;101422.88;5037856;28;45419;-51
2022/04/14 02:18:53;;;;;;;;;13.40;10.40;;;;;15.61;67.34;101411.81;5056008;28;45725;-49
2022/04/14 02:21:18;;;;;;;;;13.75;13.75;;;;;15.55;67.34;101417.22;5055558;28;45348;-55
2022/04/14 02:23:44;;;;;;;;;11.50;11.50;;;;;15.50;67.22;101417.06;5070924;28;47066;-53
2022/04/14 02:26:09;;;;;;;;;11.00;9.75;;;;;15.51;67.50;101413.22;5037335;28;45452;-52
2022/04/14 02:28:35;;;;;;;;;12.00;12.00;;;;;15.35;68.06;101388.88;5055692;28;45540;-54
2022/04/14 02:31:00;;;;;;;;;11.00;11.00;;;;;15.49;67.81;101409.84;5055822;28;45350;-54
2022/04/14 02:33:26;;;;;;;;;11.50;11.25;;;;;15.57;68.05;101417.81;5055213;28;46457;-57
2022/04/14 02:35:52;;;;;;;;;14.25;9.50;;;;;15.48;67.69;101394.28;5054958;28;45357;-54
2022/04/14 02:38:17;;;;;;;;;13.50;9.50;;;;;15.56;67.51;101413.38;5055573;28;45381;-57
2022/04/14 02:40:43;;;;;;;;;11.25;11.25;;;;;15.53;67.58;101411.03;5055821;28;45288;-54
2022/04/14 02:43:08;;;;;;;;;11.50;10.00;;;;;15.53;67.77;101419.34;5055067;28;46052;-56
2022/04/14 02:45:34;;;;;;;;;12.75;9.00;;;;;15.54;67.35;101423.81;5055125;28;45607;-57
2022/04/14 02:47:59;;;;;;;;;13.25;10.75;;;;;15.53;67.73;101424.06;5055094;28;45331;-56
2022/04/14 02:50:25;;;;;;;;;15.75;9.25;;;;;15.53;67.35;101427.66;5055714;28;45368;-57
2022/04/14 02:52:50;;;;;;;;;7.25;7.25;;;;;15.53;67.58;101426.81;5054826;28;46168;-57
2022/04/14 02:55:20;;;;;;;;;15.75;14.00;;;;;15.51;67.53;101427.03;5055110;28;45264;-52
2022/04/14 02:57:45;;;;;;;;;14.80;13.80;;;;;14.88;67.23;101329.38;5054935;28;45426;-55
2022/04/14 03:00:11;;;;;;;;;18.25;16.00;;;;;15.50;67.31;101425.34;5055467;28;45467;-59
2022/04/14 03:02:38;;;;;;;;;12.75;10.00;;;;;15.25;67.67;101379.22;5054958;28;45764;-58
2022/04/14 03:05:04;;;;;;;;;12.80;12.20;;;;;15.48;67.31;101416.41;5037312;28;45294;-53
2022/04/14 03:07:30;;;;;;;;;13.00;12.75;;;;;15.29;67.77;101390.66;5055180;28;45295;-58
2022/04/14 03:09:55;;;;;;;;;14.00;13.25;;;;;15.43;67.31;101414.34;5055847;28;45328;-58
2022/04/14 03:12:21;;;;;;;;;15.50;14.00;;;;;15.48;67.59;101412.81;5036618;28;47495;-57
2022/04/14 03:14:47;;;;;;;;;16.75;14.50;;;;;14.82;67.24;101309.03;5055115;28;45371;-57
2022/04/14 03:17:13;;;;;;;;;16.20;12.80;;;;;15.49;67.80;101420.91;5037441;28;45516;-55
2022/04/14 03:19:38;;;;;;;;;14.50;14.00;;;;;15.34;67.19;101393.59;5054887;28;45415;-56
2022/04/14 03:22:04;;;;;;;;;19.00;15.75;;;;;15.39;67.19;101415.03;5055022;28;46827;-57
2022/04/14 03:24:30;;;;;;;;;15.50;10.50;;;;;15.43;67.59;101432.88;5053468;28;45359;-57
2022/04/14 03:26:55;;;;;;;;;15.50;13.50;;;;;15.40;67.40;101434.16;5054906;28;45428;-57
2022/04/14 03:29:21;;;;;;;;;14.75;12.50;;;;;15.40;67.72;101433.31;5055251;28;45408;-55
2022/04/14 03:31:46;;;;;;;;;15.25;14.75;;;;;15.35;67.68;101427.63;5054704;28;45385;-57
2022/04/14 03:34:12;;;;;;;;;15.25;14.25;;;;;15.14;67.49;101397.41;5054988;28;45365;-57
2022/04/14 03:36:37;;;;;;;;;18.75;15.00;;;;;15.35;67.82;101430.38;5054768;28;45222;-56
2022/04/14 03:39:04;;;;;;;;;12.50;12.00;;;;;15.36;67.62;101429.34;5055077;28;45567;-58
2022/04/14 03:41:29;;;;;;;;;15.00;13.20;;;;;15.30;67.77;101434.69;5054418;28;46333;-54
2022/04/14 03:43:55;;;;;;;;;14.25;11.50;;;;;15.31;67.77;101439.16;5054501;28;45352;-53
2022/04/14 03:46:20;;;;;;;;;15.25;14.25;;;;;15.25;68.15;101434.50;5054859;28;45220;-59
2022/04/14 03:48:46;;;;;;;;;17.25;16.00;;;;;15.25;68.13;101440.03;5056217;28;45504;-52
2022/04/14 03:51:15;;;;;;;;;13.40;13.40;;;;;15.28;67.62;101447.03;5058183;28;46464;-57
2022/04/14 03:53:43;;;;;;;;;14.80;14.80;;;;;15.28;68.19;101445.13;5057847;28;45427;-57
2022/04/14 03:56:09;;;;;;;;;15.80;14.20;;;;;15.17;67.99;101435.63;5057965;28;45305;-56
2022/04/14 03:58:35;;;;;;;;;14.20;13.60;;;;;14.97;67.71;101408.19;5058257;28;45368;-56
2022/04/14 04:01:00;;;;;;;;;16.25;12.25;;;;;15.23;68.04;101457.94;5057861;28;45764;-58
2022/04/14 04:03:26;;;;;;;;;15.50;15.00;;;;;15.22;67.98;101457.09;5057789;28;45587;-55
2022/04/14 04:05:52;;;;;;;;;14.00;13.75;;;;;15.21;68.19;101458.16;5040334;28;45857;-55
2022/04/14 04:08:18;;;;;;;;;13.00;10.75;;;;;15.04;68.05;101439.38;5056825;28;45524;-56
2022/04/14 04:10:44;;;;;;;;;11.60;11.60;;;;;15.19;68.36;101454.78;5057914;28;47124;-55
2022/04/14 04:13:09;;;;;;;;;15.25;13.25;;;;;15.07;67.91;101442.75;5039327;28;45684;-55
2022/04/14 04:15:35;;;;;;;;;14.50;12.50;;;;;15.19;68.50;101454.78;5058234;28;45427;-57
2022/04/14 04:18:01;;;;;;;;;12.40;12.40;;;;;15.17;67.89;101451.41;5073515;28;45578;-54
2022/04/14 04:20:27;;;;;;;;;16.00;13.00;;;;;15.04;68.73;101439.38;5057408;28;45421;-56
2022/04/14 04:22:52;;;;;;;;;14.00;12.50;;;;;14.94;68.95;101432.66;5057672;28;45382;-58
2022/04/14 04:25:17;;;;;;;;;14.00;14.00;;;;;14.88;69.02;101435.25;5057975;28;45440;-57
2022/04/14 04:27:43;;;;;;;;;13.50;13.50;;;;;14.62;69.17;101386.53;5058187;28;45585;-55
2022/04/14 04:30:09;;;;;;;;;12.00;12.00;;;;;14.74;68.67;101397.72;5057515;28;45494;-59
2022/04/14 04:32:34;;;;;;;;;12.40;12.40;;;;;14.92;69.10;101416.28;5057418;28;45312;-56
2022/04/14 04:35:01;;;;;;;;;13.00;12.75;;;;;15.06;68.54;101446.59;5056345;28;45290;-56
2022/04/14 04:37:26;;;;;;;;;12.80;11.40;;;;;15.07;68.56;101442.75;5039753;28;45449;-62
2022/04/14 04:39:52;;;;;;;;;14.00;14.00;;;;;15.08;68.83;101452.72;5057629;28;45454;-54
2022/04/14 04:42:18;;;;;;;;;15.25;14.25;;;;;15.07;68.88;101460.19;5057252;28;45300;-57
2022/04/14 04:44:43;;;;;;;;;14.50;14.50;;;;;15.04;68.50;101460.63;5057175;28;45470;-57
2022/04/14 04:47:09;;;;;;;;;12.25;12.25;;;;;15.03;68.16;101470.84;5039603;28;45500;-57
2022/04/14 04:49:34;;;;;;;;;13.25;11.25;;;;;14.78;69.03;101440.41;5057393;28;46180;-55
2022/04/14 04:52:00;;;;;;;;;13.50;12.75;;;;;14.95;68.68;101473.91;5056989;28;45437;-57
2022/04/14 04:54:26;;;;;;;;;14.25;13.50;;;;;14.95;68.56;101473.91;5038981;28;45465;-56
2022/04/14 04:56:51;;;;;;;;;12.80;12.80;;;;;14.89;69.07;101475.63;5057405;28;45312;-54
2022/04/14 04:59:17;;;;;;;;;10.50;10.50;;;;;14.85;69.15;101479.06;5056489;28;45393;-58
2022/04/14 05:01:42;;;;;;;;;13.75;13.25;;;;;14.73;68.50;101463.16;5055652;28;45385;-55
2022/04/14 05:04:11;;;;;;;;;14.50;14.50;;;;;14.66;69.01;101448.53;5038763;28;45398;-53
2022/04/14 05:06:37;;;;;;;;;14.00;14.00;;;;;14.82;68.79;101488.63;5056879;28;45580;-55
2022/04/14 05:09:02;;;;;;;;;17.60;15.20;;;;;14.81;68.81;101477.81;5012256;28;46224;-56
2022/04/14 05:11:28;;;;;;;;;15.25;14.25;;;;;14.78;68.91;101476.31;5056477;28;45612;-56
2022/04/14 05:13:53;;;;;;;;;17.50;16.00;;;;;14.83;68.60;101475.69;5038746;28;45544;-56
2022/04/14 05:16:19;;;;;;;;;15.00;13.75;;;;;14.71;68.72;101453.38;5038633;28;45405;-57
2022/04/14 05:18:45;;;;;;;;;17.50;15.50;;;;;14.74;68.58;101466.81;5056186;28;45645;-55
2022/04/14 05:21:10;;;;;;;;;15.00;12.50;;;;;14.75;68.81;101469.34;5038197;28;45444;-56
2022/04/14 05:23:36;;;;;;;;;22.00;18.25;;;;;14.76;68.58;101473.81;5038290;28;45425;-57
2022/04/14 05:26:01;;;;;;;;;17.00;15.00;;;;;14.76;68.73;101476.56;5038788;28;45548;-56
2022/04/14 05:28:27;;;;;;;;;18.75;16.00;;;;;14.77;69.50;101486.56;5029445;27;46731;-56
2022/04/14 05:30:52;;;;;;;;;15.50;15.25;;;;;14.71;69.05;101492.94;5038196;28;45460;-55
2022/04/14 05:33:18;;;;;;;;;19.75;17.50;;;;;14.40;68.98;101442.09;5056038;28;45498;-56
2022/04/14 05:35:44;;;;;;;;;20.75;18.00;;;;;14.74;69.26;101495.25;5056647;28;45491;-57
2022/04/14 05:38:09;;;;;;;;;16.20;16.20;;;;;14.48;69.40;101443.75;5056045;28;46058;-57
2022/04/14 05:40:41;;;;;;;;;22.50;19.50;;;;;14.62;69.04;101472.16;5055939;28;45223;-56
2022/04/14 05:43:28;;;;;;;;;27.60;19.80;;;;;14.77;68.98;101502.28;5038420;28;45421;-56
2022/04/14 05:45:54;;;;;;;;;16.20;15.00;;;;;14.52;69.01;101466.25;5054972;28;45534;-57
2022/04/14 05:48:20;;;;;;;;;25.40;25.40;;;;;14.75;69.07;101513.56;5055882;28;45268;-56
2022/04/14 05:50:46;;;;;;;;;19.50;18.75;;;;;14.74;68.83;101517.38;5037909;28;45409;-52
2022/04/14 05:53:12;;;;;;;;;21.40;21.40;;;;;14.77;69.18;101513.31;5055955;28;45337;-59
2022/04/14 05:55:39;;;;;;;;;21.50;20.75;;;;;14.75;68.92;101507.19;5071617;28;45364;-55
2022/04/14 05:58:04;;;;;;;;;23.00;22.60;;;;;14.75;69.33;101504.41;5055363;28;47544;-56
2022/04/14 06:00:31;;;;;;;;;22.20;22.20;;;;;14.70;68.89;101494.00;5071231;28;45842;-58
2022/04/14 06:02:59;;;;;;;;;21.20;19.40;;;;;14.82;69.07;101512.66;5071374;28;45406;-58
2022/04/14 06:05:25;;;;;;;;;24.80;20.60;;;;;14.84;68.97;101513.28;5056284;28;45523;-57
2022/04/14 06:07:51;;;;;;;;;23.40;21.80;;;;;14.76;68.63;101506.09;5037679;28;48234;-55
2022/04/14 06:10:17;;;;;;;;;21.00;18.25;;;;;14.86;68.89;101511.16;5071225;28;45442;-57
2022/04/14 06:12:42;;;;;;;;;23.25;23.25;;;;;14.87;69.12;101505.41;5045975;28;45355;-56
2022/04/14 06:15:08;;;;;;;;;24.50;22.50;;;;;14.90;68.92;101512.41;5037496;28;45374;-56
2022/04/14 06:17:34;;;;;;;;;22.75;20.00;;;;;14.93;68.32;101509.19;5054797;28;47052;-55
2022/04/14 06:19:59;;;;;;;;;23.75;21.50;;;;;14.90;68.86;101510.47;5037149;28;45393;-58
2022/04/14 06:22:25;;;;;;;;;25.25;24.50;;;;;14.95;68.59;101512.59;5037645;28;45437;-59
2022/04/14 06:24:50;;;;;;;;;23.75;21.25;;;;;14.95;68.85;101506.22;5071325;28;45318;-56
2022/04/14 06:27:16;;;;;;;;;26.00;24.00;;;;;14.71;68.54;101475.50;5055424;28;46501;-51
2022/04/14 06:29:41;;;;;;;;;29.50;27.50;;;;;14.98;68.78;101525.97;5036986;28;45564;-54
2022/04/14 06:32:08;;;;;;;;;33.25;28.75;;;;;14.99;68.79;101529.59;5055596;28;45529;-51
2022/04/14 06:34:33;;;;;;;;;25.60;25.20;;;;;14.99;68.53;101537.88;5055730;28;45276;-55
2022/04/14 06:36:58;;;;;;;;;28.00;24.75;;;;;15.01;68.37;101546.78;5055079;28;45949;-52
2022/04/14 06:39:24;;;;;;;;;22.75;21.75;;;;;14.99;68.61;101549.75;5070814;28;45245;-54
2022/04/14 06:41:50;;;;;;;;;24.75;23.75;;;;;14.78;68.46;101515.00;5055241;28;45303;-51
2022/04/14 06:44:16;;;;;;;;;25.25;21.00;;;;;14.96;68.32;101547.47;5037352;28;45855;-51
2022/04/14 06:46:42;;;;;;;;;28.80;25.60;;;;;14.98;68.40;101553.59;5055016;28;46147;-51
2022/04/14 06:49:07;;;;;;;;;25.50;25.50;;;;;15.01;68.20;101544.84;5054952;28;45350;-50
2022/04/14 06:51:33;;;;;;;;;27.75;25.50;;;;;14.95;68.32;101536.63;5036844;28;45561;-51
2022/04/14 06:53:59;;;;;;;;;29.00;29.00;;;;;15.08;68.49;101558.66;5055062;28;45659;-54
2022/04/14 06:56:24;;;;;;;;;32.25;31.00;;;;;15.04;68.18;101538.91;5070473;28;46490;-56
2022/04/14 06:58:50;;;;;;;;;35.75;29.50;;;;;15.14;68.02;101554.13;5054982;28;45482;-55
2022/04/14 07:01:15;;;;;;;;;33.25;31.25;;;;;15.14;67.71;101545.84;5054992;28;45344;-54
2022/04/14 07:03:40;;;;;;;;;35.50;31.50;;;;;15.23;68.03;101555.56;5071192;28;45423;-61
2022/04/14 07:06:06;;;;;;;;;31.75;28.50;;;;;15.13;68.43;101552.44;5054941;28;46333;-53
2022/04/14 07:08:33;;;;;;;;;32.50;30.00;;;;;15.20;67.97;101557.94;5054890;28;45469;-54
2022/04/14 07:10:59;;;;;;;;;34.40;32.20;;;;;15.04;68.37;101518.69;5039463;28;45423;-56
2022/04/14 07:13:24;;;;;;;;;30.00;29.00;;;;;15.35;68.12;101564.00;5027894;27;45552;-53
2022/04/14 07:15:50;;;;;;;;;32.50;30.00;;;;;15.40;67.63;101552.25;5053041;28;45892;-56
2022/04/14 07:18:16;;;;;;;;;32.75;27.25;;;;;15.44;67.79;101559.88;5053343;28;45342;-54
2022/04/14 07:20:42;;;;;;;;;33.00;29.75;;;;;15.48;67.45;101562.19;5070266;28;45421;-55
2022/04/14 07:23:08;;;;;;;;;33.40;31.20;;;;;15.50;67.33;101562.81;5037324;28;45406;-56
2022/04/14 07:25:34;;;;;;;;;27.75;25.75;;;;;15.20;67.04;101505.41;5058317;28;46489;-56
2022/04/14 07:28:00;;;;;;;;;34.20;28.80;;;;;15.62;66.72;101563.78;5058845;28;45424;-56
2022/04/14 07:30:26;;;;;;;;;31.00;28.40;;;;;15.64;66.24;101563.56;5057135;28;45366;-52
2022/04/14 07:32:52;;;;;;;;;27.00;24.75;;;;;15.71;66.26;101559.63;5058393;28;45286;-55
2022/04/14 07:35:20;;;;;;;;;30.20;28.60;;;;;15.79;66.34;101569.59;5040103;28;46781;-58
2022/04/14 07:37:49;;;;;;;;;29.40;28.40;;;;;15.78;66.27;101562.38;5058422;28;45322;-57
2022/04/14 07:40:15;;;;;;;;;31.20;27.40;;;;;15.82;65.91;101565.53;5057618;28;45410;-55
2022/04/14 07:42:42;;;;;;;;;30.75;28.25;;;;;15.82;66.63;101565.53;5039142;28;45666;-56
2022/04/14 07:45:09;;;;;;;;;32.00;28.60;;;;;15.77;65.78;101570.88;5056561;28;48310;-55
2022/04/14 07:47:35;;;;;;;;;34.00;32.00;;;;;15.65;66.05;101565.25;5040134;28;45637;-57
2022/04/14 07:50:01;;;;;;;;;31.00;29.25;;;;;15.55;66.83;101563.00;5040348;28;45338;-53
2022/04/14 07:52:27;;;;;;;;;38.60;32.80;;;;;15.56;66.29;101576.59;5039854;28;45549;-55
2022/04/14 07:54:52;;;;;;;;;32.75;30.50;;;;;15.57;67.05;101575.53;5056470;28;45417;-56
2022/04/14 07:57:18;;;;;;;;;29.75;29.00;;;;;14.93;66.86;101470.50;5057417;28;45372;-50
2022/04/14 07:59:43;;;;;;;;;32.00;29.25;;;;;15.34;66.61;101545.72;5057659;28;45306;-58
2022/04/14 08:02:09;;;;;;;;;31.75;28.75;;;;;15.48;67.04;101571.31;5057845;28;45481;-54
2022/04/14 08:04:34;;;;;;;;;44.75;37.00;;;;;15.59;66.66;101581.69;5072900;28;46290;-54
2022/04/14 08:07:00;;;;;;;;;37.50;33.25;;;;;15.64;66.20;101582.94;5056214;28;45283;-56
2022/04/14 08:09:25;;;;;;;;;34.25;32.00;;;;;15.59;66.60;101562.31;5057109;28;45397;-54
2022/04/14 08:11:51;;;;;;;;;53.00;42.25;;;;;15.63;66.17;101562.69;5057669;28;45366;-56
2022/04/14 08:14:16;;;;;;;;;37.50;34.00;;;;;15.67;66.10;101565.84;5052514;27;45712;-55
2022/04/14 08:16:42;;;;;;;;;39.00;34.00;;;;;15.58;66.32;101532.09;5057030;28;45402;-55
2022/04/14 08:19:07;;;;;;;;;46.00;38.00;;;;;15.82;65.67;101569.16;5056167;28;45437;-58
2022/04/14 08:21:33;;;;;;;;;42.75;36.50;;;;;15.86;65.88;101559.28;5057588;28;45369;-51
2022/04/14 08:23:58;;;;;;;;;46.25;36.75;;;;;15.94;66.04;101571.19;5038900;28;45458;-52
2022/04/14 08:26:26;;;;;;;;;41.25;34.75;;;;;16.01;65.04;101576.66;5072623;28;45423;-55
2022/04/14 08:28:53;;;;;;;;;43.20;35.20;;;;;16.05;65.26;101584.28;5057062;28;45281;-54
2022/04/14 08:31:21;;;;;;;;;47.80;37.20;;;;;16.08;64.76;101583.84;5056018;28;45323;-54
2022/04/14 08:33:46;;;;;;;;;34.40;32.60;;;;;16.10;64.44;101587.22;5021819;28;47285;-51
2022/04/14 08:36:16;;;;;;;;;31.50;28.75;;;;;15.94;63.90;101551.81;5055214;28;45499;-55
2022/04/14 08:38:45;;;;;;;;;35.00;32.80;;;;;16.12;63.39;101582.28;5039479;28;45377;-56
2022/04/14 08:41:13;;;;;;;;;33.80;30.60;;;;;16.17;63.90;101587.13;5039433;28;45508;-54
2022/04/14 08:43:47;;;;;;;;;44.20;37.00;;;;;16.21;64.00;101590.28;5054932;28;46007;-54
2022/04/14 08:46:13;;;;;;;;;39.80;34.00;;;;;16.20;63.84;101580.28;5055099;28;45359;-50
2022/04/14 08:48:38;;;;;;;;;35.25;33.00;;;;;16.30;64.01;101586.16;5038788;28;45736;-53
2022/04/14 08:51:05;;;;;;;;;40.50;34.25;;;;;16.37;63.23;101577.75;5016510;28;45861;-53
2022/04/14 08:53:30;;;;;;;;;39.80;35.00;;;;;16.40;63.45;101580.09;5032937;28;45624;-55
2022/04/14 08:55:57;;;;;;;;;39.25;33.75;;;;;16.25;63.42;101550.00;5034562;28;45402;-52
2022/04/14 08:58:26;;;;;;;;;38.20;34.20;;;;;16.53;62.82;101579.06;5054556;28;45402;-54
2022/04/14 09:00:52;;;;;;;;;38.60;35.20;;;;;16.37;62.60;101542.59;5055280;28;45422;-54
2022/04/14 09:03:18;;;;;;;;;33.20;31.40;;;;;16.72;61.76;101582.69;5054706;28;46064;-55
2022/04/14 09:05:43;;;;;;;;;26.25;24.75;;;;;16.79;61.54;101586.22;5054527;28;45507;-53
2022/04/14 09:08:09;;;;;;;;;33.50;31.75;;;;;16.81;60.78;101585.97;5053698;28;45485;-55
2022/04/14 09:10:37;;;;;;;;;40.00;33.75;;;;;16.87;60.63;101584.19;5056076;28;45280;-53
2022/04/14 09:13:03;;;;;;;;;32.60;26.80;;;;;16.86;60.19;101583.34;5024684;28;46346;-55
2022/04/14 09:15:29;;;;;;;;;26.25;23.00;;;;;16.96;60.31;101595.81;5054726;28;45577;-55
2022/04/14 09:17:55;;;;;;;;;30.50;29.25;;;;;16.97;59.65;101580.88;5055513;28;45377;-55
2022/04/14 09:20:41;;;;;;;;;27.60;26.40;;;;;16.87;60.05;101571.16;5054415;28;45464;-55
2022/04/14 09:23:23;;;;;;;;;27.00;27.00;;;;;17.05;59.43;101583.34;5054652;28;45704;-55
2022/04/14 09:25:49;;;;;;;;;21.80;20.80;;;;;17.18;60.07;101588.69;5053704;28;45438;-57
2022/04/14 09:28:16;;;;;;;;;28.40;27.20;;;;;17.13;59.17;101577.44;5037529;28;45552;-58
2022/04/14 09:31:04;;;;;;;;;26.80;25.80;;;;;17.28;59.15;101596.44;5055008;28;45418;-58
2022/04/14 09:33:34;;;;;;;;;28.40;26.20;;;;;17.28;58.35;101599.22;5054404;28;45769;-57
2022/04/14 09:36:24;;;;;;;;;29.40;24.20;;;;;17.26;58.35;101581.97;5038041;28;45516;-55
2022/04/14 09:38:56;;;;;;;;;13.40;12.40;;;;;17.32;57.53;101591.28;5056277;28;45382;-56
2022/04/14 09:41:37;;;;;;;;;23.60;22.40;;;;;17.37;57.83;101596.09;5056238;28;45492;-54
2022/04/14 09:44:10;;;;;;;;;23.20;23.20;;;;;17.40;57.49;101582.59;5054306;28;45338;-55
2022/04/14 09:46:45;;;;;;;;;25.40;23.80;;;;;17.33;57.59;101557.75;5052363;28;45485;-55
2022/04/14 09:49:13;;;;;;;;;25.40;24.60;;;;;17.59;56.99;101590.84;5054512;28;45342;-54
2022/04/14 09:51:40;;;;;;;;;22.00;20.40;;;;;17.62;57.11;101576.50;5043962;28;46024;-54
2022/04/14 09:54:12;;;;;;;;;27.60;23.40;;;;;17.68;57.23;101575.53;5041706;28;45584;-56
2022/04/14 09:56:54;;;;;;;;;32.20;23.60;;;;;17.61;56.66;101561.78;5035938;28;45550;-56
2022/04/14 09:59:26;;;;;;;;;23.60;21.80;;;;;17.60;56.45;101548.13;5055607;28;45340;-54
2022/04/14 10:02:10;;;;;;;;;25.00;22.40;;;;;17.63;56.32;101541.25;5055818;28;45355;-54
2022/04/14 10:04:46;;;;;;;;;25.20;19.80;;;;;17.99;55.24;101581.00;5036823;28;46410;-53
2022/04/14 10:07:15;;;;;;;;;19.00;18.80;;;;;18.00;53.95;101586.28;5037393;28;45327;-52
2022/04/14 10:09:43;;;;;;;;;16.80;14.40;;;;;18.03;54.11;101582.19;5036379;28;45419;-54
2022/04/14 10:12:18;;;;;;;;;14.40;14.40;;;;;18.12;54.93;101588.25;5056361;28;45260;-55
2022/04/14 10:14:56;;;;;;;;;18.20;16.80;;;;;18.19;53.40;101585.38;5035139;28;49386;-55
2022/04/14 10:17:25;;;;;;;;;18.20;17.60;;;;;18.17;54.13;101565.28;5019013;28;45536;-53
2022/04/14 10:19:51;;;;;;;;;14.60;13.80;;;;;18.29;53.54;101577.25;5035214;28;45411;-55
2022/04/14 10:22:17;;;;;;;;;18.50;18.50;;;;;18.34;53.48;101566.25;5034012;28;45359;-56
2022/04/14 10:24:43;;;;;;;;;18.25;18.00;;;;;18.45;52.49;101581.19;5000905;28;45381;-54
2022/04/14 10:27:08;;;;;;;;;9.60;9.60;;;;;18.48;52.17;101577.94;5033823;28;45484;-55
2022/04/14 10:29:34;;;;;;;;;12.00;12.00;;;;;18.48;51.53;101572.38;5034154;28;45399;-57
2022/04/14 10:32:01;;;;;;;;;12.75;11.75;;;;;18.42;51.68;101540.03;5017660;28;45517;-56
2022/04/14 10:34:27;;;;;;;;;17.00;16.40;;;;;18.66;52.08;101567.72;5016477;28;46112;-57
2022/04/14 10:36:53;;;;;;;;;14.00;13.75;;;;;18.75;51.55;101563.50;5050490;28;46028;-57
2022/04/14 10:39:18;;;;;;;;;16.00;16.00;;;;;18.65;51.99;101549.38;4979472;28;46602;-61
2022/04/14 10:41:49;;;;;;;;;13.50;12.75;;;;;18.62;52.23;101558.22;5050486;28;45375;-55
2022/04/14 10:44:15;;;;;;;;;15.80;15.80;;;;;18.71;51.67;101559.50;5016993;28;45785;-58
2022/04/14 10:46:41;;;;;;;;;15.50;15.25;;;;;18.79;51.06;101564.66;5033435;28;45525;-56
2022/04/14 10:49:11;;;;;;;;;9.60;7.80;;;;;18.87;50.73;101548.66;5033491;28;45357;-54
2022/04/14 10:51:37;;;;;;;;;15.40;14.00;;;;;18.97;50.63;101551.66;5033589;28;45699;-58
2022/04/14 10:54:05;;;;;;;;;15.00;15.00;;;;;18.85;50.74;101521.13;5015149;28;46496;-55
2022/04/14 10:56:33;;;;;;;;;9.40;8.80;;;;;19.18;50.17;101555.72;4983993;28;45467;-55
2022/04/14 10:58:59;;;;;;;;;12.40;11.60;;;;;19.01;49.06;101519.47;5034070;28;45419;-58
2022/04/14 11:01:46;;;;;;;;;11.25;11.25;;;;;19.32;49.85;101561.78;5035251;28;45353;-59
2022/04/14 11:04:43;;;;;;;;;12.40;12.00;;;;;19.45;49.87;101555.06;5032409;28;46428;-56
2022/04/14 11:07:13;;;;;;;;;14.40;14.40;;;;;19.51;49.23;101544.84;5034914;28;45437;-60